createdAt,value
2018-08-20T00:00:03.850Z,12.43
2018-08-20T00:02:37.946Z,9.00
2018-08-20T00:05:08.198Z,11.67
2018-08-20T00:07:38.032Z,9.80
2018-08-20T00:10:09.607Z,16.30
2018-08-20T00:12:39.306Z,18.47
2018-08-20T00:15:09.523Z,18.57
2018-08-20T00:17:39.066Z,12.33
2018-08-20T00:20:09.441Z,14.30
2018-08-20T00:22:38.933Z,18.87
2018-08-20T00:25:11.747Z,12.10
2018-08-20T00:27:41.356Z,11.60
2018-08-20T00:30:12.814Z,20.97
2018-08-20T00:32:44.265Z,16.63
2018-08-20T00:35:15.885Z,15.30
2018-08-20T00:37:49.010Z,17.13
2018-08-20T00:40:19.136Z,15.97
2018-08-20T00:42:49.341Z,13.70
2018-08-20T00:45:18.818Z,13.40
2018-08-20T00:47:49.422Z,15.00
2018-08-20T00:50:19.153Z,19.00
2018-08-20T00:52:49.907Z,14.20
2018-08-20T00:55:19.579Z,21.70
2018-08-20T00:57:49.839Z,13.17
2018-08-20T01:00:19.708Z,13.50
2018-08-20T01:02:49.595Z,19.87
2018-08-20T01:05:19.304Z,16.67
2018-08-20T01:07:48.819Z,13.67
2018-08-20T01:10:19.002Z,17.30
2018-08-20T01:12:49.343Z,17.97
2018-08-20T01:15:19.701Z,20.37
2018-08-20T01:17:49.309Z,20.33
2018-08-20T01:20:19.822Z,19.27
2018-08-20T01:22:49.657Z,18.10
2018-08-20T01:25:19.205Z,15.73
2018-08-20T01:27:50.465Z,16.80
2018-08-20T01:30:20.210Z,11.70
2018-08-20T01:32:49.900Z,13.60
2018-08-20T01:35:28.651Z,12.60
2018-08-20T01:37:58.216Z,13.07
2018-08-20T01:40:27.765Z,10.67
2018-08-20T01:42:58.160Z,13.67
2018-08-20T01:45:28.360Z,9.97
2018-08-20T01:47:58.025Z,14.40
2018-08-20T01:50:28.160Z,9.43
2018-08-20T01:53:01.560Z,7.10
2018-08-20T01:55:31.179Z,10.13
2018-08-20T01:58:00.721Z,7.53
2018-08-20T02:00:30.794Z,6.80
2018-08-20T02:03:04.315Z,6.90
2018-08-20T02:05:33.948Z,6.57
2018-08-20T02:08:03.539Z,6.20
2018-08-20T02:10:33.247Z,10.90
2018-08-20T02:13:03.178Z,5.27
2018-08-20T02:15:32.881Z,12.77
2018-08-20T02:18:02.467Z,9.90
2018-08-20T02:20:31.939Z,6.37
2018-08-20T02:23:02.198Z,10.33
2018-08-20T02:25:31.699Z,8.17
2018-08-20T02:28:01.862Z,7.43
2018-08-20T02:30:32.349Z,5.10
2018-08-20T02:33:01.820Z,4.77
2018-08-20T02:35:31.992Z,7.50
2018-08-20T02:38:01.512Z,4.80
2018-08-20T02:40:31.907Z,5.67
2018-08-20T02:43:01.439Z,9.70
2018-08-20T02:45:31.179Z,8.10
2018-08-20T02:48:01.473Z,4.33
2018-08-20T02:50:31.171Z,3.70
2018-08-20T02:53:00.777Z,8.50
2018-08-20T02:55:31.412Z,7.30
2018-08-20T02:58:01.184Z,8.90
2018-08-20T03:00:30.926Z,3.47
2018-08-20T03:03:04.113Z,4.40
2018-08-20T03:05:34.470Z,3.43
2018-08-20T03:08:04.267Z,3.23
2018-08-20T03:10:34.362Z,4.03
2018-08-20T03:13:04.175Z,5.77
2018-08-20T03:15:33.919Z,6.50
2018-08-20T03:18:03.589Z,4.70
2018-08-20T03:20:33.092Z,4.07
2018-08-20T03:23:03.441Z,5.80
2018-08-20T03:25:33.170Z,3.90
2018-08-20T03:28:02.697Z,4.47
2018-08-20T03:30:32.231Z,5.43
2018-08-20T03:33:01.824Z,5.80
2018-08-20T03:35:31.383Z,3.30
2018-08-20T03:38:01.237Z,3.93
2018-08-20T03:40:31.245Z,7.03
2018-08-20T03:43:00.839Z,2.43
2018-08-20T03:45:30.581Z,5.43
2018-08-20T03:48:00.144Z,5.53
2018-08-20T03:50:30.198Z,3.37
2018-08-20T03:53:00.067Z,3.73
2018-08-20T03:55:30.095Z,2.87
2018-08-20T03:57:59.570Z,2.73
2018-08-20T04:00:29.259Z,3.20
2018-08-20T04:02:58.892Z,5.60
2018-08-20T04:05:28.476Z,3.83
2018-08-20T04:07:58.262Z,6.73
2018-08-20T04:10:28.423Z,4.33
2018-08-20T04:12:58.044Z,3.30
2018-08-20T04:15:28.176Z,2.27
2018-08-20T04:17:58.062Z,2.00
2018-08-20T04:20:27.764Z,3.13
2018-08-20T04:22:57.266Z,3.10
2018-08-20T04:25:27.421Z,5.10
2018-08-20T04:27:57.150Z,2.00
2018-08-20T04:30:26.637Z,4.13
2018-08-20T04:32:56.254Z,2.30
2018-08-20T04:35:26.494Z,4.30
2018-08-20T04:37:56.461Z,4.33
2018-08-20T04:40:26.128Z,5.70
2018-08-20T04:42:56.337Z,3.70
2018-08-20T04:45:25.986Z,4.90
2018-08-20T04:47:55.544Z,3.30
2018-08-20T04:50:25.669Z,3.27
2018-08-20T04:52:55.248Z,3.47
2018-08-20T04:55:25.173Z,3.70
2018-08-20T04:57:54.739Z,3.10
2018-08-20T05:00:24.341Z,6.20
2018-08-20T05:02:53.861Z,3.03
2018-08-20T05:05:23.617Z,4.57
2018-08-20T05:07:53.245Z,2.80
2018-08-20T05:10:22.768Z,2.23
2018-08-20T05:12:52.645Z,3.87
2018-08-20T05:15:22.968Z,2.17
2018-08-20T05:17:52.679Z,2.80
2018-08-20T05:20:22.197Z,2.63
2018-08-20T05:22:52.504Z,1.80
2018-08-20T05:25:22.824Z,2.50
2018-08-20T05:27:52.598Z,2.27
2018-08-20T05:30:22.153Z,2.10
2018-08-20T05:32:51.784Z,2.30
2018-08-20T05:35:22.007Z,3.67
2018-08-20T05:37:51.602Z,2.63
2018-08-20T05:40:21.281Z,1.87
2018-08-20T05:42:50.858Z,1.97
2018-08-20T05:45:20.442Z,1.70
2018-08-20T05:47:50.005Z,1.37
2018-08-20T05:50:19.548Z,1.40
2018-08-20T05:52:49.850Z,2.23
2018-08-20T05:55:19.418Z,2.60
2018-08-20T05:57:49.061Z,4.07
2018-08-20T06:00:18.767Z,1.47
2018-08-20T06:02:48.276Z,2.00
2018-08-20T06:05:22.116Z,1.30
2018-08-20T06:07:51.725Z,1.90
2018-08-20T06:10:21.411Z,2.60
2018-08-20T06:12:51.195Z,2.03
2018-08-20T06:15:20.730Z,5.03
2018-08-20T06:17:50.324Z,1.87
2018-08-20T06:20:19.827Z,3.80
2018-08-20T06:22:49.539Z,2.00
2018-08-20T06:25:19.316Z,2.70
2018-08-20T06:27:49.502Z,1.40
2018-08-20T06:30:21.848Z,1.43
2018-08-20T06:32:53.704Z,1.00
2018-08-20T06:35:23.915Z,1.50
2018-08-20T06:37:54.718Z,3.23
2018-08-20T06:40:25.093Z,1.20
2018-08-20T06:42:54.825Z,1.47
2018-08-20T06:45:24.753Z,1.67
2018-08-20T06:47:54.657Z,3.67
2018-08-20T06:50:24.684Z,1.43
2018-08-20T06:52:54.343Z,1.60
2018-08-20T06:55:23.976Z,1.20
2018-08-20T06:57:53.636Z,1.93
2018-08-20T07:00:23.454Z,2.20
2018-08-20T07:02:53.477Z,2.70
2018-08-20T07:05:23.213Z,1.00
2018-08-20T07:07:52.768Z,1.30
2018-08-20T07:10:22.582Z,1.70
2018-08-20T07:12:52.279Z,1.40
2018-08-20T07:15:21.866Z,1.60
2018-08-20T07:17:54.403Z,1.37
2018-08-20T07:20:24.034Z,2.10
2018-08-20T07:22:54.324Z,2.30
2018-08-20T07:25:24.064Z,2.90
2018-08-20T07:27:54.243Z,1.43
2018-08-20T07:30:23.915Z,2.40
2018-08-20T07:32:54.250Z,1.57
2018-08-20T07:35:23.752Z,2.00
2018-08-20T07:37:53.449Z,5.87
2018-08-20T07:40:23.068Z,2.00
2018-08-20T07:42:52.926Z,2.93
2018-08-20T07:45:22.490Z,1.83
2018-08-20T07:47:52.029Z,5.53
2018-08-20T07:50:21.637Z,4.77
2018-08-20T07:52:51.730Z,4.10
2018-08-20T07:55:21.554Z,2.97
2018-08-20T07:57:51.176Z,2.20
2018-08-20T08:00:20.886Z,7.77
2018-08-20T08:02:50.474Z,2.40
2018-08-20T08:05:20.232Z,5.33
2018-08-20T08:07:49.800Z,5.53
2018-08-20T08:10:19.418Z,4.03
2018-08-20T08:12:48.967Z,4.13
2018-08-20T08:15:18.602Z,7.10
2018-08-20T08:17:48.389Z,4.33
2018-08-20T08:20:18.353Z,5.73
2018-08-20T08:22:48.027Z,4.00
2018-08-20T08:25:18.700Z,4.53
2018-08-20T08:27:49.554Z,2.63
2018-08-20T08:30:20.490Z,4.03
2018-08-20T08:32:51.602Z,1.93
2018-08-20T08:35:22.798Z,5.23
2018-08-20T08:37:53.963Z,6.67
2018-08-20T08:40:25.742Z,4.50
2018-08-20T08:42:56.822Z,5.43
2018-08-20T08:45:27.875Z,2.47
2018-08-20T08:47:59.066Z,6.10
2018-08-20T08:50:30.031Z,7.13
2018-08-20T08:53:00.846Z,3.97
2018-08-20T08:55:31.908Z,5.07
2018-08-20T08:58:03.837Z,2.67
2018-08-20T09:00:34.773Z,5.67
2018-08-20T09:03:05.932Z,8.37
2018-08-20T09:05:36.742Z,4.63
2018-08-20T09:08:06.405Z,6.30
2018-08-20T09:10:36.210Z,6.50
2018-08-20T09:13:06.046Z,6.50
2018-08-20T09:15:35.981Z,6.23
2018-08-20T09:18:06.333Z,8.30
2018-08-20T09:20:36.305Z,6.20
2018-08-20T09:23:06.079Z,4.23
2018-08-20T09:25:35.811Z,5.30
2018-08-20T09:28:05.628Z,10.63
2018-08-20T09:30:35.153Z,7.90
2018-08-20T09:33:04.748Z,4.03
2018-08-20T09:35:34.506Z,3.50
2018-08-20T09:38:04.238Z,4.20
2018-08-20T09:40:33.762Z,7.10
2018-08-20T09:43:03.463Z,6.27
2018-08-20T09:45:33.089Z,4.23
2018-08-20T09:48:02.726Z,5.20
2018-08-20T09:50:32.450Z,2.77
2018-08-20T09:53:02.211Z,6.97
2018-08-20T09:55:31.818Z,8.50
2018-08-20T09:58:01.513Z,4.50
2018-08-20T10:00:36.479Z,3.30
2018-08-20T10:03:06.023Z,6.00
2018-08-20T10:05:35.539Z,8.77
2018-08-20T10:08:05.282Z,5.70
2018-08-20T10:10:35.083Z,6.60
2018-08-20T10:13:04.871Z,7.03
2018-08-20T10:15:34.393Z,5.93
2018-08-20T10:18:05.946Z,9.13
2018-08-20T10:20:36.009Z,21.77
2018-08-20T10:23:05.875Z,3.13
2018-08-20T10:25:35.652Z,4.63
2018-08-20T10:28:05.513Z,3.80
2018-08-20T10:30:35.482Z,5.90
2018-08-20T10:33:05.483Z,4.63
2018-08-20T10:35:36.414Z,3.83
2018-08-20T10:38:07.779Z,5.70
2018-08-20T10:40:39.430Z,4.53
2018-08-20T10:43:10.512Z,4.67
2018-08-20T10:45:46.759Z,6.13
2018-08-20T10:48:17.840Z,4.67
2018-08-20T10:50:49.294Z,6.93
2018-08-20T10:53:20.127Z,2.50
2018-08-20T10:55:51.016Z,3.23
2018-08-20T10:58:22.129Z,4.10
2018-08-20T11:00:53.151Z,6.60
2018-08-20T11:03:24.136Z,3.20
2018-08-20T11:05:54.950Z,2.50
2018-08-20T11:08:25.965Z,5.47
2018-08-20T11:10:57.357Z,3.40
2018-08-20T11:13:28.450Z,7.07
2018-08-20T11:15:59.308Z,4.20
2018-08-20T11:18:30.445Z,7.07
2018-08-20T11:21:01.247Z,3.80
2018-08-20T11:23:32.332Z,5.10
2018-08-20T11:26:03.157Z,3.87
2018-08-20T11:28:33.988Z,7.07
2018-08-20T11:31:04.781Z,6.13
2018-08-20T11:33:35.695Z,3.90
2018-08-20T11:36:09.656Z,3.87
2018-08-20T11:38:41.177Z,3.57
2018-08-20T11:41:12.519Z,3.13
2018-08-20T11:43:43.617Z,5.43
2018-08-20T11:46:15.540Z,8.70
2018-08-20T11:48:46.533Z,2.23
2018-08-20T11:51:17.414Z,3.30
2018-08-20T11:53:49.533Z,4.10
2018-08-20T11:56:20.614Z,5.33
2018-08-20T11:58:52.030Z,5.47
2018-08-20T12:01:23.752Z,3.07
2018-08-20T12:03:55.569Z,3.70
2018-08-20T12:06:27.250Z,4.80
2018-08-20T12:09:42.053Z,3.73
2018-08-20T12:12:22.780Z,1.50
2018-08-20T12:14:54.155Z,2.27
2018-08-20T12:17:25.418Z,2.83
2018-08-20T12:19:56.833Z,3.20
2018-08-20T12:22:27.839Z,4.80
2018-08-20T12:25:01.495Z,2.60
2018-08-20T12:27:33.873Z,3.33
2018-08-20T12:30:06.825Z,4.00
2018-08-20T12:32:38.255Z,2.40
2018-08-20T12:35:11.079Z,3.77
2018-08-20T12:37:43.820Z,6.33
2018-08-20T12:40:15.360Z,3.43
2018-08-20T12:42:46.440Z,3.37
2018-08-20T12:45:17.946Z,3.63
2018-08-20T12:47:50.359Z,3.33
2018-08-20T12:50:22.040Z,3.40
2018-08-20T12:52:52.879Z,3.50
2018-08-20T12:55:24.566Z,3.23
2018-08-20T12:57:55.628Z,3.03
2018-08-20T13:00:26.941Z,2.77
2018-08-20T13:02:59.094Z,4.97
2018-08-20T13:05:30.710Z,5.30
2018-08-20T13:08:02.713Z,3.73
2018-08-20T13:10:33.964Z,4.00
2018-08-20T13:13:05.123Z,5.50
2018-08-20T13:15:36.169Z,1.70
2018-08-20T13:18:06.915Z,1.83
2018-08-20T13:20:37.759Z,3.50
2018-08-20T13:23:08.770Z,2.90
2018-08-20T13:25:39.735Z,3.07
2018-08-20T13:28:10.508Z,2.20
2018-08-20T13:30:44.884Z,3.00
2018-08-20T13:33:20.547Z,2.67
2018-08-20T13:35:55.618Z,4.53
2018-08-20T13:38:29.972Z,2.90
2018-08-20T13:41:05.006Z,2.43
2018-08-20T13:43:40.166Z,4.13
2018-08-20T13:46:14.207Z,2.27
2018-08-20T13:48:45.708Z,5.43
2018-08-20T13:51:20.235Z,6.57
2018-08-20T13:53:53.240Z,5.23
2018-08-20T13:56:26.387Z,2.20
2018-08-20T13:58:58.320Z,3.03
2018-08-20T14:01:32.640Z,1.67
2018-08-20T14:04:04.710Z,2.33
2018-08-20T14:06:36.076Z,2.87
2018-08-20T14:09:09.265Z,5.07
2018-08-20T14:11:40.930Z,3.87
2018-08-20T14:14:15.276Z,2.97
2018-08-20T14:16:48.374Z,3.97
2018-08-20T14:19:19.272Z,3.50
2018-08-20T14:21:50.303Z,4.63
2018-08-20T14:24:21.377Z,3.90
2018-08-20T14:26:52.102Z,3.40
2018-08-20T14:29:23.077Z,6.43
2018-08-20T14:31:53.860Z,7.63
2018-08-20T14:34:24.894Z,2.80
2018-08-20T14:36:55.873Z,1.93
2018-08-20T14:39:27.121Z,4.43
2018-08-20T14:41:58.203Z,2.67
2018-08-20T14:44:29.363Z,5.43
2018-08-20T14:47:00.575Z,5.33
2018-08-20T14:49:31.720Z,6.50
2018-08-20T14:52:02.809Z,5.53
2018-08-20T14:54:33.943Z,4.20
2018-08-20T14:57:05.679Z,3.60
2018-08-20T14:59:37.389Z,2.47
2018-08-20T15:02:08.419Z,2.10
2018-08-20T15:04:39.356Z,8.13
2018-08-20T15:07:10.329Z,3.97
2018-08-20T15:09:40.006Z,2.10
2018-08-20T15:12:09.780Z,2.30
2018-08-20T15:14:39.353Z,3.73
2018-08-20T15:17:10.368Z,3.10
2018-08-20T15:19:40.143Z,2.20
2018-08-20T15:22:09.994Z,3.33
2018-08-20T15:24:39.647Z,2.70
2018-08-20T15:27:09.355Z,5.70
2018-08-20T15:29:39.074Z,2.53
2018-08-20T15:32:09.090Z,2.60
2018-08-20T15:34:40.447Z,1.87
2018-08-20T15:37:10.223Z,4.10
2018-08-20T15:39:41.021Z,5.60
2018-08-20T15:42:12.264Z,2.67
2018-08-20T15:44:43.911Z,2.37
2018-08-20T15:47:14.897Z,3.90
2018-08-20T15:49:46.317Z,2.50
2018-08-20T15:52:17.471Z,2.77
2018-08-20T15:54:48.439Z,2.90
2018-08-20T15:57:19.354Z,2.13
2018-08-20T15:59:49.520Z,3.63
2018-08-20T16:02:19.835Z,2.13
2018-08-20T16:04:50.252Z,1.90
2018-08-20T16:07:20.643Z,2.90
2018-08-20T16:09:50.855Z,3.63
2018-08-20T16:12:21.092Z,1.97
2018-08-20T16:14:51.289Z,2.07
2018-08-20T16:17:21.560Z,1.83
2018-08-20T16:19:51.841Z,1.47
2018-08-20T16:22:22.000Z,1.67
2018-08-20T16:24:52.330Z,3.27
2018-08-20T16:27:22.579Z,2.70
2018-08-20T16:29:52.840Z,2.43
2018-08-20T16:32:23.042Z,3.30
2018-08-20T16:34:53.171Z,1.60
2018-08-20T16:37:23.586Z,4.80
2018-08-20T16:39:53.775Z,3.30
2018-08-20T16:42:23.945Z,3.00
2018-08-20T16:44:54.090Z,5.27
2018-08-20T16:47:24.332Z,5.07
2018-08-20T16:49:54.623Z,3.07
2018-08-20T16:52:25.029Z,3.20
2018-08-20T16:54:55.535Z,2.83
2018-08-20T16:57:25.832Z,3.53
2018-08-20T16:59:56.233Z,2.43
2018-08-20T17:02:28.391Z,2.97
2018-08-20T17:04:58.669Z,2.07
2018-08-20T17:07:28.798Z,2.77
2018-08-20T17:09:59.147Z,6.13
2018-08-20T17:12:29.232Z,3.03
2018-08-20T17:14:59.520Z,1.50
2018-08-20T17:17:29.594Z,2.23
2018-08-20T17:19:59.706Z,3.37
2018-08-20T17:22:29.853Z,1.50
2018-08-20T17:25:00.092Z,1.67
2018-08-20T17:27:30.548Z,1.90
2018-08-20T17:30:00.992Z,2.40
2018-08-20T17:32:31.793Z,3.90
2018-08-20T17:35:01.981Z,1.40
2018-08-20T17:37:32.240Z,2.97
2018-08-20T17:40:04.512Z,1.73
2018-08-20T17:42:35.132Z,3.93
2018-08-20T17:45:06.242Z,5.33
2018-08-20T17:47:39.514Z,1.30
2018-08-20T17:50:24.758Z,3.13
2018-08-20T17:52:55.249Z,5.53
2018-08-20T17:55:25.294Z,5.43
2018-08-20T17:57:55.565Z,3.50
2018-08-20T18:00:34.502Z,3.20
2018-08-20T18:03:04.860Z,5.53
2018-08-20T18:05:35.042Z,3.00
2018-08-20T18:08:05.073Z,1.87
2018-08-20T18:10:35.291Z,2.53
2018-08-20T18:13:05.603Z,4.00
2018-08-20T18:15:36.307Z,5.73
2018-08-20T18:18:09.208Z,3.73
2018-08-20T18:20:46.153Z,1.40
2018-08-20T18:23:16.717Z,2.17
2018-08-20T18:25:47.644Z,4.33
2018-08-20T18:28:18.263Z,1.40
2018-08-20T18:30:49.845Z,1.60
2018-08-20T18:33:21.777Z,6.30
2018-08-20T18:35:52.333Z,3.03
2018-08-20T18:38:22.599Z,4.60
2018-08-20T18:40:52.907Z,2.37
2018-08-20T18:43:27.890Z,2.53
2018-08-20T18:45:58.162Z,4.10
2018-08-20T18:48:34.210Z,3.57
2018-08-20T18:51:04.555Z,3.43
2018-08-20T18:53:34.973Z,4.23
2018-08-20T18:56:11.663Z,2.53
2018-08-20T18:58:42.602Z,3.80
2018-08-20T19:01:13.179Z,1.60
2018-08-20T19:03:47.027Z,1.40
2018-08-20T19:06:18.155Z,2.97
2018-08-20T19:08:48.411Z,2.17
2018-08-20T19:11:18.725Z,2.70
2018-08-20T19:13:49.442Z,2.30
2018-08-20T19:16:37.001Z,6.20
2018-08-20T19:19:08.103Z,1.63
2018-08-20T19:21:42.492Z,6.10
2018-08-20T19:24:12.986Z,3.40
2018-08-20T19:26:43.435Z,1.40
2018-08-20T19:29:26.425Z,5.93
2018-08-20T19:31:56.632Z,3.43
2018-08-20T19:34:26.897Z,2.47
2018-08-20T19:36:57.229Z,3.73
2018-08-20T19:39:27.336Z,2.60
2018-08-20T19:41:57.653Z,3.33
2018-08-20T19:44:27.976Z,3.30
2018-08-20T19:46:58.201Z,2.50
2018-08-20T19:49:29.422Z,8.00
2018-08-20T19:51:59.919Z,2.30
2018-08-20T19:54:30.352Z,2.83
2018-08-20T19:57:06.715Z,1.40
2018-08-20T19:59:38.264Z,3.53
2018-08-20T20:02:12.211Z,2.80
2018-08-20T20:04:42.536Z,3.07
2018-08-20T20:07:12.806Z,4.50
2018-08-20T20:09:43.326Z,4.10
2018-08-20T20:12:13.618Z,2.53
2018-08-20T20:14:48.333Z,2.77
2018-08-20T20:17:18.744Z,3.77
2018-08-20T20:19:49.166Z,2.50
2018-08-20T20:22:19.405Z,3.27
2018-08-20T20:24:49.552Z,4.60
2018-08-20T20:27:19.774Z,1.70
2018-08-20T20:29:49.975Z,5.67
2018-08-20T20:32:20.264Z,1.87
2018-08-20T20:34:50.997Z,1.47
2018-08-20T20:37:21.352Z,3.30
2018-08-20T20:39:56.843Z,2.03
2018-08-20T20:42:27.399Z,4.10
2018-08-20T20:44:57.719Z,3.60
2018-08-20T20:51:01.780Z,8.20
2018-08-20T20:53:32.090Z,3.80
2018-08-20T20:56:02.397Z,6.97
2018-08-20T20:58:36.757Z,10.13
2018-08-20T21:01:09.125Z,7.47
2018-08-20T21:03:39.254Z,11.30
2018-08-20T21:06:09.515Z,5.50
2018-08-20T21:08:44.696Z,4.03
2018-08-20T21:11:15.476Z,4.87
2018-08-20T21:13:45.910Z,6.33
2018-08-20T21:16:19.875Z,3.50
2018-08-20T21:18:52.243Z,2.27
2018-08-20T21:21:22.932Z,3.13
2018-08-20T21:23:53.113Z,4.27
2018-08-20T21:26:23.386Z,3.43
2018-08-20T21:28:54.351Z,3.87
2018-08-20T21:31:28.362Z,4.17
2018-08-20T21:34:00.999Z,3.07
2018-08-20T21:36:31.350Z,3.80
2018-08-20T21:39:01.647Z,3.57
2018-08-20T21:41:31.965Z,1.70
2018-08-20T21:44:02.130Z,3.27
2018-08-20T21:46:32.299Z,1.13
2018-08-20T21:49:02.510Z,2.87
2018-08-20T21:51:37.969Z,1.53
2018-08-20T21:54:08.105Z,3.37
2018-08-20T21:56:54.118Z,3.13
2018-08-20T21:59:24.353Z,2.60
2018-08-20T22:01:54.513Z,1.73
2018-08-20T22:04:24.788Z,4.27
2018-08-20T22:06:54.939Z,1.40
2018-08-20T22:09:25.088Z,2.00
2018-08-20T22:11:57.516Z,6.63
2018-08-20T22:14:27.701Z,2.83
2018-08-20T22:16:57.907Z,2.20
2018-08-20T22:19:28.015Z,6.40
2018-08-20T22:21:58.206Z,1.83
2018-08-20T22:24:28.242Z,2.60
2018-08-20T22:26:58.509Z,1.70
2018-08-20T22:29:37.005Z,1.90
2018-08-20T22:32:09.675Z,2.40
2018-08-20T22:34:39.770Z,3.03
2018-08-20T22:37:10.013Z,4.73
2018-08-20T22:39:40.335Z,3.77
2018-08-20T22:42:10.513Z,2.90
2018-08-20T22:44:40.661Z,2.70
2018-08-20T22:47:10.782Z,2.23
2018-08-20T22:49:40.996Z,3.40
2018-08-20T22:52:12.794Z,4.80
2018-08-20T22:54:42.915Z,2.17
2018-08-20T22:57:13.180Z,3.07
2018-08-20T22:59:43.334Z,2.07
2018-08-20T23:02:13.658Z,4.30
2018-08-20T23:04:47.947Z,2.20
2018-08-20T23:07:18.062Z,4.07
2018-08-20T23:09:48.330Z,2.30
2018-08-20T23:12:19.099Z,1.63
2018-08-20T23:14:49.469Z,5.10
2018-08-20T23:17:19.498Z,5.27
2018-08-20T23:19:49.810Z,1.60
2018-08-20T23:22:19.923Z,2.03
2018-08-20T23:24:55.266Z,1.30
2018-08-20T23:27:30.733Z,3.83
2018-08-20T23:30:03.382Z,3.00
2018-08-20T23:32:36.287Z,1.97
2018-08-20T23:35:06.758Z,2.20
2018-08-20T23:37:36.956Z,3.43
2018-08-20T23:40:07.109Z,3.40
2018-08-20T23:42:37.144Z,3.70
2018-08-20T23:45:07.381Z,4.00
2018-08-20T23:47:37.522Z,2.23
2018-08-20T23:50:07.771Z,2.47
2018-08-20T23:52:37.964Z,5.53
2018-08-20T23:55:08.299Z,2.20
2018-08-20T23:57:38.594Z,3.33
